Aviation Digital Data Service (ADDS)

Output produced by METARs form (0051 UTC 06 December 2016)
found at http://aviationweather.gov/adds/metars/
 
KDAN 052349Z 0600/0624 10004KT P6SM OVC100 
     FM060500 10006KT P6SM -RA OVC050 
     FM060700 09007KT 4SM -RA BR SCT010 OVC018 
     FM061000 07008G16KT 2SM RA OVC005 
     FM062100 01005KT 5SM -RA BR OVC009